createdAt,value
2019-02-09T00:00:16.821Z,8.18
2019-02-09T00:01:16.790Z,8.08
2019-02-09T00:02:16.756Z,8.07
2019-02-09T00:03:16.721Z,8.11
2019-02-09T00:04:16.689Z,8.12
2019-02-09T00:05:16.657Z,8.12
2019-02-09T00:06:16.623Z,8.04
2019-02-09T00:07:16.591Z,8.04
2019-02-09T00:08:16.558Z,8.05
2019-02-09T00:09:16.528Z,8.10
2019-02-09T00:10:16.492Z,8.12
2019-02-09T00:11:16.461Z,8.10
2019-02-09T00:12:16.430Z,8.08
2019-02-09T00:13:16.395Z,8.08
2019-02-09T00:14:16.362Z,8.19
2019-02-09T00:15:16.329Z,8.15
2019-02-09T00:16:16.298Z,8.08
2019-02-09T00:17:16.264Z,8.08
2019-02-09T00:18:16.232Z,8.11
2019-02-09T00:19:16.197Z,8.15
2019-02-09T00:20:16.166Z,8.12
2019-02-09T00:21:16.133Z,8.12
2019-02-09T00:22:16.101Z,8.08
2019-02-09T00:23:16.066Z,8.10
2019-02-09T00:24:16.033Z,8.10
2019-02-09T00:25:16.001Z,8.07
2019-02-09T00:26:15.968Z,8.05
2019-02-09T00:27:15.934Z,8.02
2019-02-09T00:28:15.902Z,8.02
2019-02-09T00:29:15.870Z,7.93
2019-02-09T00:30:15.837Z,7.95
2019-02-09T00:31:15.803Z,7.92
2019-02-09T00:32:15.772Z,7.98
2019-02-09T00:33:15.738Z,8.07
2019-02-09T00:34:15.705Z,8.02
2019-02-09T00:35:15.673Z,8.12
2019-02-09T00:36:15.642Z,8.08
2019-02-09T00:37:15.609Z,8.08
2019-02-09T00:38:15.574Z,8.05
2019-02-09T00:39:15.540Z,8.05
2019-02-09T00:40:15.509Z,8.08
2019-02-09T00:41:15.475Z,8.01
2019-02-09T00:42:15.442Z,7.93
2019-02-09T00:43:15.409Z,7.98
2019-02-09T00:44:15.376Z,7.98
2019-02-09T00:45:15.343Z,8.04
2019-02-09T00:46:15.309Z,8.07
2019-02-09T00:47:15.278Z,8.10
2019-02-09T00:48:15.244Z,8.05
2019-02-09T00:49:15.211Z,8.08
2019-02-09T00:50:15.177Z,7.98
2019-02-09T00:51:15.145Z,8.01
2019-02-09T00:52:15.115Z,8.00
2019-02-09T00:53:15.093Z,8.07
2019-02-09T00:54:15.046Z,8.07
2019-02-09T00:55:15.019Z,8.07
2019-02-09T00:56:14.981Z,8.07
2019-02-09T00:57:14.947Z,8.11
2019-02-09T00:58:14.914Z,8.07
2019-02-09T00:59:14.883Z,8.11
2019-02-09T01:00:14.851Z,8.08
2019-02-09T01:01:14.817Z,8.12
2019-02-09T01:02:14.785Z,8.12
2019-02-09T01:03:14.753Z,8.15
2019-02-09T01:04:14.719Z,8.10
2019-02-09T01:05:14.686Z,8.10
2019-02-09T01:06:14.652Z,8.12
2019-02-09T01:07:14.619Z,8.07
2019-02-09T01:08:14.588Z,8.08
2019-02-09T01:09:14.555Z,8.15
2019-02-09T01:10:14.522Z,8.18
2019-02-09T01:11:14.488Z,8.05
2019-02-09T01:12:14.454Z,8.08
2019-02-09T01:13:14.423Z,8.08
2019-02-09T01:14:14.391Z,8.12
2019-02-09T01:15:14.357Z,8.07
2019-02-09T01:16:14.326Z,8.05
2019-02-09T01:17:14.292Z,8.15
2019-02-09T01:18:14.261Z,8.10
2019-02-09T01:19:14.228Z,8.02
2019-02-09T01:20:14.194Z,8.12
2019-02-09T01:21:14.162Z,8.01
2019-02-09T01:22:14.129Z,8.02
2019-02-09T01:23:14.096Z,8.10
2019-02-09T01:24:14.064Z,8.04
2019-02-09T01:25:14.032Z,8.02
2019-02-09T01:26:13.999Z,8.08
2019-02-09T01:27:13.964Z,8.05
2019-02-09T01:28:13.932Z,8.02
2019-02-09T01:29:13.899Z,8.02
2019-02-09T01:30:13.866Z,8.00
2019-02-09T01:31:13.833Z,8.04
2019-02-09T01:32:13.801Z,8.02
2019-02-09T01:33:13.770Z,8.01
2019-02-09T01:34:13.738Z,8.02
2019-02-09T01:35:13.703Z,8.02
2019-02-09T01:36:13.671Z,8.07
2019-02-09T01:37:13.638Z,8.01
2019-02-09T01:38:13.605Z,7.97
2019-02-09T01:39:13.570Z,8.01
2019-02-09T01:40:13.537Z,8.05
2019-02-09T01:41:13.507Z,8.08
2019-02-09T01:42:13.477Z,8.00
2019-02-09T01:43:13.441Z,8.02
2019-02-09T01:44:13.407Z,8.00
2019-02-09T01:45:13.375Z,7.97
2019-02-09T01:46:13.342Z,7.98
2019-02-09T01:47:13.308Z,8.02
2019-02-09T01:48:13.279Z,7.92
2019-02-09T01:49:13.244Z,8.00
2019-02-09T01:50:13.210Z,8.05
2019-02-09T01:51:13.178Z,8.00
2019-02-09T01:52:13.145Z,7.98
2019-02-09T01:53:13.112Z,8.07
2019-02-09T01:54:13.079Z,8.05
2019-02-09T01:55:13.045Z,7.98
2019-02-09T01:56:13.013Z,8.01
2019-02-09T01:57:12.982Z,8.01
2019-02-09T01:58:12.947Z,7.86
2019-02-09T01:59:12.916Z,7.98
2019-02-09T02:00:12.883Z,8.01
2019-02-09T02:01:12.850Z,8.05
2019-02-09T02:02:12.816Z,8.02
2019-02-09T02:03:12.783Z,8.02
2019-02-09T02:04:12.751Z,8.01
2019-02-09T02:05:12.719Z,8.07
2019-02-09T02:06:12.685Z,8.04
2019-02-09T02:07:12.653Z,8.04
2019-02-09T02:08:12.629Z,8.08
2019-02-09T02:09:12.589Z,8.04
2019-02-09T02:10:12.553Z,8.12
2019-02-09T02:11:12.521Z,8.11
2019-02-09T02:12:12.488Z,8.07
2019-02-09T02:13:12.456Z,8.12
2019-02-09T02:14:12.422Z,8.11
2019-02-09T02:15:12.390Z,8.11
2019-02-09T02:16:12.357Z,8.11
2019-02-09T02:17:12.325Z,8.05
2019-02-09T02:18:12.291Z,8.16
2019-02-09T02:19:12.258Z,8.12
2019-02-09T02:20:12.225Z,8.07
2019-02-09T02:21:12.193Z,8.08
2019-02-09T02:22:12.159Z,8.10
2019-02-09T02:23:12.131Z,8.05
2019-02-09T02:24:12.094Z,8.16
2019-02-09T02:25:12.062Z,8.25
2019-02-09T02:26:12.030Z,8.15
2019-02-09T02:27:12.001Z,8.16
2019-02-09T02:28:11.963Z,8.18
2019-02-09T02:29:11.937Z,8.25
2019-02-09T02:30:21.670Z,8.30
2019-02-09T02:31:11.867Z,8.20
2019-02-09T02:32:11.835Z,8.16
2019-02-09T02:33:11.801Z,8.25
2019-02-09T02:34:11.768Z,8.26
2019-02-09T02:35:11.734Z,8.16
2019-02-09T02:36:11.705Z,8.23
2019-02-09T02:37:11.669Z,8.28
2019-02-09T02:38:11.637Z,8.23
2019-02-09T02:39:11.604Z,8.30
2019-02-09T02:40:11.571Z,8.33
2019-02-09T02:41:11.545Z,8.25
2019-02-09T02:42:11.505Z,8.28
2019-02-09T02:43:11.475Z,8.33
2019-02-09T02:44:11.442Z,8.23
2019-02-09T02:45:11.411Z,8.34
2019-02-09T02:46:11.373Z,8.33
2019-02-09T02:47:11.342Z,8.36
2019-02-09T02:48:11.311Z,8.36
2019-02-09T02:49:11.277Z,8.26
2019-02-09T02:50:11.243Z,8.23
2019-02-09T02:51:11.210Z,8.33
2019-02-09T02:52:11.179Z,8.33
2019-02-09T02:53:11.147Z,8.25
2019-02-09T02:54:11.118Z,8.30
2019-02-09T02:55:11.082Z,8.38
2019-02-09T02:56:11.048Z,8.34
2019-02-09T02:57:11.016Z,8.30
2019-02-09T02:58:10.984Z,8.28
2019-02-09T02:59:10.953Z,8.34
2019-02-09T03:00:10.919Z,8.33
2019-02-09T03:01:10.885Z,8.29
2019-02-09T03:02:10.860Z,8.33
2019-02-09T03:03:10.821Z,8.34
2019-02-09T03:04:10.788Z,8.34
2019-02-09T03:05:10.756Z,8.30
2019-02-09T03:06:10.725Z,8.34
2019-02-09T03:07:10.689Z,8.28
2019-02-09T03:08:10.658Z,8.33
2019-02-09T03:09:10.624Z,8.33
2019-02-09T03:10:10.590Z,8.33
2019-02-09T03:11:10.560Z,8.38
2019-02-09T03:12:10.527Z,8.44
2019-02-09T03:13:10.494Z,8.37
2019-02-09T03:14:10.461Z,8.38
2019-02-09T03:15:10.429Z,8.38
2019-02-09T03:16:10.398Z,8.37
2019-02-09T03:17:10.364Z,8.37
2019-02-09T03:18:10.333Z,8.33
2019-02-09T03:19:10.297Z,8.30
2019-02-09T03:20:10.265Z,8.30
2019-02-09T03:21:10.231Z,8.36
2019-02-09T03:22:10.202Z,8.30
2019-02-09T03:23:10.168Z,8.33
2019-02-09T03:24:10.135Z,8.41
2019-02-09T03:25:10.103Z,8.44
2019-02-09T03:26:10.068Z,8.41
2019-02-09T03:27:10.037Z,8.38
2019-02-09T03:28:10.004Z,8.40
2019-02-09T03:29:09.971Z,8.44
2019-02-09T03:30:09.942Z,8.41
2019-02-09T03:31:09.908Z,8.45
2019-02-09T03:32:10.997Z,8.44
2019-02-09T03:33:09.886Z,8.53
2019-02-09T03:34:09.813Z,8.48
2019-02-09T03:35:09.775Z,8.48
2019-02-09T03:36:09.745Z,8.52
2019-02-09T03:37:09.711Z,8.53
2019-02-09T03:38:09.680Z,8.56
2019-02-09T03:39:09.648Z,8.48
2019-02-09T03:40:09.613Z,8.56
2019-02-09T03:41:09.581Z,8.48
2019-02-09T03:42:09.547Z,8.50
2019-02-09T03:43:09.514Z,8.56
2019-02-09T03:44:09.489Z,8.52
2019-02-09T03:45:09.451Z,8.55
2019-02-09T03:46:09.421Z,8.50
2019-02-09T03:47:09.384Z,8.45
2019-02-09T03:48:09.353Z,8.47
2019-02-09T03:49:09.321Z,8.50
2019-02-09T03:50:09.288Z,8.56
2019-02-09T03:51:09.255Z,8.56
2019-02-09T03:52:09.222Z,8.56
2019-02-09T03:53:09.194Z,8.48
2019-02-09T03:54:09.158Z,8.50
2019-02-09T03:55:09.126Z,8.52
2019-02-09T03:56:09.169Z,8.40
2019-02-09T03:57:09.061Z,8.38
2019-02-09T03:58:09.028Z,8.44
2019-02-09T03:59:08.994Z,8.53
2019-02-09T04:00:08.965Z,8.41
2019-02-09T04:01:08.934Z,8.40
2019-02-09T04:02:08.897Z,8.43
2019-02-09T04:03:08.864Z,8.43
2019-02-09T04:04:08.834Z,8.55
2019-02-09T04:05:08.799Z,8.41
2019-02-09T04:06:08.767Z,8.55
2019-02-09T04:07:08.734Z,8.45
2019-02-09T04:08:08.702Z,8.50
2019-02-09T04:09:08.669Z,8.41
2019-02-09T04:10:08.637Z,8.53
2019-02-09T04:11:08.605Z,8.41
2019-02-09T04:12:08.573Z,8.43
2019-02-09T04:13:08.544Z,8.50
2019-02-09T04:14:08.507Z,8.43
2019-02-09T04:15:08.474Z,8.40
2019-02-09T04:16:08.443Z,8.41
2019-02-09T04:17:08.411Z,8.45
2019-02-09T04:18:08.375Z,8.44
2019-02-09T04:19:08.345Z,8.43
2019-02-09T04:20:08.313Z,8.47
2019-02-09T04:21:08.281Z,8.47
2019-02-09T04:22:08.247Z,8.38
2019-02-09T04:23:08.215Z,8.40
2019-02-09T04:24:08.185Z,8.37
2019-02-09T04:25:08.155Z,8.41
2019-02-09T04:26:08.118Z,8.37
2019-02-09T04:27:08.092Z,8.43
2019-02-09T04:28:08.054Z,8.33
2019-02-09T04:29:08.027Z,8.33
2019-02-09T04:30:07.989Z,8.33
2019-02-09T04:31:07.968Z,8.34
2019-02-09T04:32:07.922Z,8.37
2019-02-09T04:33:07.890Z,8.37
2019-02-09T04:34:07.861Z,8.34
2019-02-09T04:35:07.824Z,8.41
2019-02-09T04:36:07.795Z,8.29
2019-02-09T04:37:07.761Z,8.36
2019-02-09T04:38:07.726Z,8.43
2019-02-09T04:39:07.696Z,8.47
2019-02-09T04:40:07.664Z,8.43
2019-02-09T04:41:07.632Z,8.40
2019-02-09T04:42:07.597Z,8.41
2019-02-09T04:43:07.566Z,8.38
2019-02-09T04:44:07.532Z,8.30
2019-02-09T04:45:07.501Z,8.36
2019-02-09T04:46:07.467Z,8.28
2019-02-09T04:47:07.436Z,8.29
2019-02-09T04:48:07.403Z,8.30
2019-02-09T04:49:07.370Z,8.36
2019-02-09T04:50:07.336Z,8.41
2019-02-09T04:51:07.305Z,8.38
2019-02-09T04:52:07.271Z,8.38
2019-02-09T04:53:07.243Z,8.34
2019-02-09T04:54:07.207Z,8.41
2019-02-09T04:55:07.184Z,8.41
2019-02-09T04:56:07.142Z,8.43
2019-02-09T04:57:07.108Z,8.40
2019-02-09T04:58:07.080Z,8.45
2019-02-09T04:59:07.046Z,8.45
2019-02-09T05:00:07.012Z,8.36
2019-02-09T05:01:13.831Z,8.45
2019-02-09T05:02:06.948Z,8.44
2019-02-09T05:03:06.914Z,8.47
2019-02-09T05:04:06.881Z,8.44
2019-02-09T05:05:06.851Z,8.44
2019-02-09T05:06:06.826Z,8.44
2019-02-09T05:07:06.785Z,8.50
2019-02-09T05:08:06.751Z,8.48
2019-02-09T05:09:06.718Z,8.41
2019-02-09T05:10:06.684Z,8.48
2019-02-09T05:11:06.654Z,8.44
2019-02-09T05:12:06.622Z,8.50
2019-02-09T05:13:06.589Z,8.47
2019-02-09T05:14:06.556Z,8.52
2019-02-09T05:15:06.522Z,8.41
2019-02-09T05:16:06.495Z,8.47
2019-02-09T05:17:06.465Z,8.37
2019-02-09T05:18:06.431Z,8.38
2019-02-09T05:19:06.393Z,8.43
2019-02-09T05:20:06.360Z,8.40
2019-02-09T05:21:06.326Z,8.33
2019-02-09T05:22:06.297Z,8.33
2019-02-09T05:23:06.262Z,8.37
2019-02-09T05:24:06.230Z,8.43
2019-02-09T05:25:06.199Z,8.40
2019-02-09T05:26:06.164Z,8.40
2019-02-09T05:27:06.131Z,8.41
2019-02-09T05:28:06.103Z,8.40
2019-02-09T05:29:06.067Z,8.45
2019-02-09T05:30:06.034Z,8.47
2019-02-09T05:31:06.001Z,8.45
2019-02-09T05:32:05.971Z,8.47
2019-02-09T05:33:05.936Z,8.56
2019-02-09T05:34:05.905Z,8.53
2019-02-09T05:35:05.872Z,8.48
2019-02-09T05:36:05.838Z,8.53
2019-02-09T05:37:05.807Z,8.55
2019-02-09T05:38:05.775Z,8.56
2019-02-09T05:39:05.740Z,8.52
2019-02-09T05:40:05.710Z,8.59
2019-02-09T05:41:05.677Z,8.53
2019-02-09T05:42:05.642Z,8.41
2019-02-09T05:43:05.611Z,8.47
2019-02-09T05:44:05.579Z,8.44
2019-02-09T05:45:05.549Z,8.53
2019-02-09T05:46:05.514Z,8.50
2019-02-09T05:47:05.493Z,8.47
2019-02-09T05:48:05.452Z,8.43
2019-02-09T05:49:05.416Z,8.52
2019-02-09T05:50:05.383Z,8.47
2019-02-09T05:51:05.349Z,8.52
2019-02-09T05:52:05.318Z,8.53
2019-02-09T05:53:05.284Z,8.56
2019-02-09T05:54:05.251Z,8.56
2019-02-09T05:55:05.220Z,8.50
2019-02-09T05:56:05.186Z,8.41
2019-02-09T05:57:05.154Z,8.45
2019-02-09T05:58:05.123Z,8.50
2019-02-09T05:59:05.094Z,8.41
2019-02-09T06:00:05.057Z,8.43
2019-02-09T06:01:05.025Z,8.43
2019-02-09T06:02:04.994Z,8.40
2019-02-09T06:03:04.990Z,8.37
2019-02-09T06:04:04.927Z,8.38
2019-02-09T06:05:04.894Z,8.36
2019-02-09T06:06:04.860Z,8.36
2019-02-09T06:07:04.842Z,8.36
2019-02-09T06:08:04.798Z,8.33
2019-02-09T06:09:04.765Z,8.34
2019-02-09T06:10:04.734Z,8.28
2019-02-09T06:11:04.697Z,8.34
2019-02-09T06:12:04.664Z,8.26
2019-02-09T06:13:04.634Z,8.16
2019-02-09T06:14:04.598Z,8.22
2019-02-09T06:15:04.566Z,8.22
2019-02-09T06:16:04.536Z,8.15
2019-02-09T06:17:04.503Z,8.25
2019-02-09T06:18:04.468Z,8.18
2019-02-09T06:19:04.436Z,8.15
2019-02-09T06:20:04.403Z,8.18
2019-02-09T06:21:04.371Z,8.19
2019-02-09T06:22:04.339Z,8.25
2019-02-09T06:23:04.309Z,8.20
2019-02-09T06:24:04.274Z,8.16
2019-02-09T06:25:04.241Z,8.08
2019-02-09T06:26:04.208Z,8.10
2019-02-09T06:27:04.175Z,8.16
2019-02-09T06:28:04.142Z,8.07
2019-02-09T06:29:04.109Z,8.15
2019-02-09T06:30:04.076Z,8.15
2019-02-09T06:31:04.043Z,8.16
2019-02-09T06:32:04.012Z,8.11
2019-02-09T06:33:03.979Z,8.11
2019-02-09T06:34:03.945Z,8.05
2019-02-09T06:35:03.912Z,8.07
2019-02-09T06:36:03.881Z,8.08
2019-02-09T06:37:03.848Z,8.04
2019-02-09T06:38:03.814Z,8.05
2019-02-09T06:39:03.781Z,8.08
2019-02-09T06:40:03.749Z,8.04
2019-02-09T06:41:03.716Z,7.89
2019-02-09T06:42:03.682Z,7.89
2019-02-09T06:43:03.906Z,7.90
2019-02-09T06:44:03.618Z,7.89
2019-02-09T06:45:03.585Z,7.80
2019-02-09T06:46:03.553Z,7.83
2019-02-09T06:47:03.519Z,7.80
2019-02-09T06:48:03.491Z,7.71
2019-02-09T06:49:03.458Z,7.77
2019-02-09T06:50:03.420Z,7.80
2019-02-09T06:51:03.387Z,7.74
2019-02-09T06:52:03.355Z,7.79
2019-02-09T06:53:03.321Z,7.75
2019-02-09T06:54:03.288Z,7.79
2019-02-09T06:55:03.255Z,7.67
2019-02-09T06:56:03.224Z,7.79
2019-02-09T06:57:03.190Z,7.82
2019-02-09T06:58:03.157Z,7.86
2019-02-09T06:59:03.122Z,7.80
2019-02-09T07:00:03.090Z,7.82
2019-02-09T07:01:03.067Z,7.77
2019-02-09T07:02:03.025Z,7.80
2019-02-09T07:03:02.991Z,7.79
2019-02-09T07:04:02.960Z,7.79
2019-02-09T07:05:02.925Z,7.75
2019-02-09T07:06:02.895Z,7.64
2019-02-09T07:07:02.861Z,7.67
2019-02-09T07:08:02.830Z,7.67
2019-02-09T07:09:02.795Z,7.63
2019-02-09T07:10:02.760Z,7.64
2019-02-09T07:11:02.726Z,7.63
2019-02-09T07:12:02.693Z,7.67
2019-02-09T07:13:02.663Z,7.63
2019-02-09T07:14:02.627Z,7.58
2019-02-09T07:15:02.597Z,7.67
2019-02-09T07:16:02.563Z,7.57
2019-02-09T07:17:02.529Z,7.72
2019-02-09T07:18:02.496Z,7.67
2019-02-09T07:19:02.463Z,7.75
2019-02-09T07:20:02.430Z,7.77
2019-02-09T07:21:02.397Z,7.77
2019-02-09T07:22:02.366Z,7.74
2019-02-09T07:23:02.331Z,7.82
2019-02-09T07:24:02.297Z,7.82
2019-02-09T07:25:02.265Z,7.83
2019-02-09T07:26:02.232Z,7.79
2019-02-09T07:27:02.198Z,7.85
2019-02-09T07:28:02.166Z,7.80
2019-02-09T07:29:02.136Z,7.82
2019-02-09T07:30:02.099Z,7.92
2019-02-09T07:31:02.067Z,7.90
2019-02-09T07:32:02.034Z,7.86
2019-02-09T07:33:02.000Z,7.86
2019-02-09T07:34:01.968Z,7.82
2019-02-09T07:35:01.935Z,7.85
2019-02-09T07:36:01.912Z,7.80
2019-02-09T07:37:01.873Z,7.85
2019-02-09T07:38:01.835Z,8.02
2019-02-09T07:39:01.801Z,8.33
2019-02-09T07:40:01.771Z,8.08
2019-02-09T07:41:01.736Z,8.11
2019-02-09T07:42:01.704Z,8.12
2019-02-09T07:43:01.670Z,8.28
2019-02-09T07:44:01.638Z,8.41
2019-02-09T07:45:01.607Z,8.66
2019-02-09T07:46:01.571Z,8.68
2019-02-09T07:47:01.538Z,8.77
2019-02-09T07:48:01.507Z,8.52
2019-02-09T07:49:01.473Z,8.53
2019-02-09T07:50:01.439Z,8.33
2019-02-09T07:51:01.405Z,8.22
2019-02-09T07:52:01.374Z,8.20
2019-02-09T07:53:01.342Z,8.16
2019-02-09T07:54:01.309Z,8.28
2019-02-09T07:55:01.276Z,8.22
2019-02-09T07:56:01.244Z,8.28
2019-02-09T07:57:01.209Z,8.37
2019-02-09T07:58:01.177Z,8.59
2019-02-09T07:59:01.144Z,8.74
2019-02-09T08:00:01.114Z,8.86
2019-02-09T08:01:01.081Z,9.04
2019-02-09T08:02:04.702Z,8.94
2019-02-09T08:03:01.014Z,8.73
2019-02-09T08:04:00.982Z,8.62
2019-02-09T08:05:00.950Z,8.50
2019-02-09T08:06:00.918Z,8.44
2019-02-09T08:07:00.885Z,8.48
2019-02-09T08:08:00.859Z,8.37
2019-02-09T08:09:00.820Z,8.30
2019-02-09T08:10:00.791Z,8.30
2019-02-09T08:11:08.803Z,8.25
2019-02-09T08:12:00.726Z,8.30
2019-02-09T08:13:00.691Z,8.22
2019-02-09T08:14:00.660Z,8.30
2019-02-09T08:15:00.625Z,8.37
2019-02-09T08:16:00.594Z,8.41
2019-02-09T08:17:00.562Z,8.52
2019-02-09T08:18:00.530Z,8.56
2019-02-09T08:19:00.496Z,8.56
2019-02-09T08:20:00.464Z,8.59
2019-02-09T08:21:00.432Z,8.56
2019-02-09T08:22:00.425Z,8.56
2019-02-09T08:23:00.366Z,8.63
2019-02-09T08:24:00.335Z,8.59
2019-02-09T08:25:00.303Z,8.50
2019-02-09T08:26:00.270Z,8.52
2019-02-09T08:27:00.239Z,8.56
2019-02-09T08:28:00.207Z,8.50
2019-02-09T08:29:00.173Z,8.53
2019-02-09T08:30:00.224Z,8.53
2019-02-09T08:31:00.109Z,8.44
2019-02-09T08:32:00.077Z,8.37
2019-02-09T08:33:00.048Z,8.37
2019-02-09T08:34:00.012Z,8.36
2019-02-09T08:34:59.981Z,8.36
2019-02-09T08:35:59.946Z,8.30
2019-02-09T08:36:59.915Z,8.37
2019-02-09T08:37:59.882Z,8.34
2019-02-09T08:38:59.849Z,8.38
2019-02-09T08:39:59.820Z,8.30
2019-02-09T08:40:59.786Z,8.47
2019-02-09T08:41:59.752Z,8.59
2019-02-09T08:42:59.719Z,9.74
2019-02-09T08:43:59.689Z,10.61
2019-02-09T08:44:59.656Z,10.67
2019-02-09T08:45:59.623Z,10.22
2019-02-09T08:46:59.593Z,10.05
2019-02-09T08:47:59.559Z,9.53
2019-02-09T08:48:59.536Z,9.50
2019-02-09T08:49:59.497Z,9.47
2019-02-09T08:50:59.465Z,9.51
2019-02-09T08:51:59.432Z,10.12
2019-02-09T08:52:59.402Z,10.51
2019-02-09T08:53:59.368Z,10.14
2019-02-09T08:54:59.338Z,9.86
2019-02-09T08:55:59.305Z,9.69
2019-02-09T08:56:59.277Z,9.53
2019-02-09T08:57:59.256Z,9.53
2019-02-09T08:58:59.211Z,9.60
2019-02-09T08:59:59.180Z,9.51
2019-02-09T09:00:59.150Z,9.50
2019-02-09T09:01:59.115Z,9.47
2019-02-09T09:02:59.097Z,9.50
2019-02-09T09:03:59.054Z,9.40
2019-02-09T09:04:59.026Z,9.54
2019-02-09T09:05:58.990Z,9.64
2019-02-09T09:06:58.957Z,9.86
2019-02-09T09:07:58.926Z,9.79
2019-02-09T09:08:58.894Z,9.81
2019-02-09T09:09:58.862Z,10.71
2019-02-09T09:10:58.831Z,10.88
2019-02-09T09:11:58.800Z,10.61
2019-02-09T09:12:58.772Z,11.32
2019-02-09T09:13:58.737Z,11.55
2019-02-09T09:14:58.707Z,12.20
2019-02-09T09:15:58.677Z,12.83
2019-02-09T09:16:58.644Z,12.67
2019-02-09T09:17:58.612Z,12.53
2019-02-09T09:18:58.585Z,11.80
2019-02-09T09:19:58.553Z,10.99
2019-02-09T09:20:58.522Z,10.64
2019-02-09T09:21:58.491Z,10.73
2019-02-09T09:22:58.464Z,10.70
2019-02-09T09:23:58.431Z,10.81
2019-02-09T09:24:58.401Z,11.02
2019-02-09T09:25:58.371Z,10.86
2019-02-09T09:26:58.343Z,10.81
2019-02-09T09:27:58.310Z,10.74
2019-02-09T09:28:58.286Z,11.10
2019-02-09T09:29:58.248Z,11.36
2019-02-09T09:30:58.223Z,11.73
2019-02-09T09:31:58.191Z,12.41
2019-02-09T09:32:58.158Z,12.59
2019-02-09T09:33:58.129Z,12.92
2019-02-09T09:34:58.099Z,13.00
2019-02-09T09:35:58.068Z,13.30
2019-02-09T09:36:58.040Z,13.41
2019-02-09T09:37:58.009Z,13.41
2019-02-09T09:38:57.979Z,12.85
2019-02-09T09:39:57.950Z,12.82
2019-02-09T09:40:57.925Z,12.59
2019-02-09T09:41:57.891Z,12.46
2019-02-09T09:42:57.863Z,13.20
2019-02-09T09:43:57.835Z,13.20
2019-02-09T09:44:57.806Z,12.59
2019-02-09T09:45:57.775Z,12.19
2019-02-09T09:46:57.750Z,11.82
2019-02-09T09:47:57.721Z,11.14
2019-02-09T09:48:57.688Z,11.03
2019-02-09T09:49:57.658Z,10.78
2019-02-09T09:50:57.631Z,10.76
2019-02-09T09:51:57.605Z,10.79
2019-02-09T09:52:57.574Z,10.66
2019-02-09T09:53:57.542Z,10.86
2019-02-09T09:54:57.510Z,10.78
2019-02-09T09:55:57.482Z,10.86
2019-02-09T09:56:57.456Z,10.85
2019-02-09T09:57:57.424Z,10.85
2019-02-09T09:58:57.393Z,10.84
2019-02-09T09:59:57.363Z,11.18
2019-02-09T10:00:57.334Z,11.18
2019-02-09T10:01:57.302Z,11.17
2019-02-09T10:02:57.281Z,11.25
2019-02-09T10:03:57.247Z,10.97
2019-02-09T10:04:57.215Z,10.84
2019-02-09T10:05:57.184Z,10.55
2019-02-09T10:06:57.153Z,10.53
2019-02-09T10:07:57.125Z,10.64
2019-02-09T10:08:57.094Z,10.61
2019-02-09T10:09:57.063Z,10.63
2019-02-09T10:10:57.036Z,10.76
2019-02-09T10:11:57.006Z,11.14
2019-02-09T10:12:56.973Z,11.28
2019-02-09T10:13:56.944Z,11.25
2019-02-09T10:14:56.912Z,11.03
2019-02-09T10:15:56.884Z,10.86
2019-02-09T10:16:56.855Z,10.78
2019-02-09T10:17:56.822Z,10.82
2019-02-09T10:18:56.793Z,10.84
2019-02-09T10:19:56.764Z,10.86
2019-02-09T10:20:56.732Z,10.92
2019-02-09T10:21:56.701Z,10.86
2019-02-09T10:22:56.672Z,10.84
2019-02-09T10:23:56.651Z,11.02
2019-02-09T10:24:56.612Z,11.24
2019-02-09T10:25:56.580Z,12.27
2019-02-09T10:26:56.551Z,13.15
2019-02-09T10:27:56.521Z,14.65
2019-02-09T10:28:56.495Z,14.64
2019-02-09T10:29:56.461Z,13.30
2019-02-09T10:30:56.432Z,12.77
2019-02-09T10:31:56.401Z,12.67
2019-02-09T10:32:56.373Z,12.86
2019-02-09T10:33:56.345Z,13.51
2019-02-09T10:34:56.313Z,14.42
2019-02-09T10:35:56.283Z,13.46
2019-02-09T10:36:56.256Z,13.99
2019-02-09T10:37:56.226Z,14.88
2019-02-09T10:38:56.196Z,14.00
2019-02-09T10:39:56.168Z,13.14
2019-02-09T10:40:56.138Z,12.79
2019-02-09T10:41:56.109Z,13.26
2019-02-09T10:42:56.079Z,13.23
2019-02-09T10:43:56.053Z,13.03
2019-02-09T10:44:56.025Z,12.17
2019-02-09T10:45:55.994Z,12.87
2019-02-09T10:46:55.964Z,13.54
2019-02-09T10:47:55.936Z,14.27
2019-02-09T10:48:55.907Z,14.18
2019-02-09T10:49:55.881Z,14.54
2019-02-09T10:50:55.849Z,14.58
2019-02-09T10:51:55.819Z,15.23
2019-02-09T10:52:55.792Z,14.42
2019-02-09T10:53:55.762Z,14.55
2019-02-09T10:54:55.734Z,14.07
2019-02-09T10:55:55.709Z,14.12
2019-02-09T10:56:55.679Z,13.17
2019-02-09T10:57:55.652Z,13.05
2019-02-09T10:58:55.621Z,12.68
2019-02-09T10:59:55.592Z,12.23
2019-02-09T11:00:55.563Z,12.27
2019-02-09T11:01:55.535Z,12.10
2019-02-09T11:02:55.938Z,11.91
2019-02-09T11:03:55.478Z,11.91
2019-02-09T11:04:55.450Z,11.90
2019-02-09T11:05:55.424Z,11.83
2019-02-09T11:06:55.395Z,11.82
2019-02-09T11:07:55.365Z,12.02
2019-02-09T11:08:55.334Z,12.14
2019-02-09T11:09:55.302Z,12.17
2019-02-09T11:10:55.273Z,12.13
2019-02-09T11:11:55.245Z,13.15
2019-02-09T11:12:55.216Z,14.03
2019-02-09T11:13:55.187Z,13.22
2019-02-09T11:14:55.156Z,12.89
2019-02-09T11:15:55.129Z,13.59
2019-02-09T11:16:55.099Z,13.32
2019-02-09T11:17:55.069Z,12.92
2019-02-09T11:18:55.040Z,12.87
2019-02-09T11:19:55.012Z,12.56
2019-02-09T11:20:54.983Z,12.46
2019-02-09T11:21:54.953Z,13.03
2019-02-09T11:22:54.924Z,13.03
2019-02-09T11:23:54.897Z,13.77
2019-02-09T11:24:54.866Z,12.89
2019-02-09T11:25:54.837Z,14.14
2019-02-09T11:26:54.807Z,14.20
2019-02-09T11:27:54.779Z,13.49
2019-02-09T11:28:54.754Z,13.01
2019-02-09T11:29:54.721Z,12.71
2019-02-09T11:30:54.692Z,12.74
2019-02-09T11:31:54.665Z,12.31
2019-02-09T11:33:01.682Z,12.64
2019-02-09T11:33:54.605Z,13.54
2019-02-09T11:34:54.577Z,15.09
2019-02-09T11:35:54.547Z,14.81
2019-02-09T11:36:54.522Z,15.27
2019-02-09T11:37:54.489Z,14.98
2019-02-09T11:38:54.462Z,14.28
2019-02-09T11:39:54.432Z,13.71
2019-02-09T11:40:54.404Z,13.55
2019-02-09T11:41:54.378Z,13.79
2019-02-09T11:42:54.349Z,13.20
2019-02-09T11:43:54.319Z,12.79
2019-02-09T11:44:54.289Z,12.65
2019-02-09T11:45:54.264Z,13.07
2019-02-09T11:46:54.231Z,14.07
2019-02-09T11:47:54.203Z,14.65
2019-02-09T11:48:54.176Z,15.20
2019-02-09T11:49:54.145Z,15.14
2019-02-09T11:50:54.117Z,14.94
2019-02-09T11:51:54.088Z,14.96
2019-02-09T11:52:54.062Z,14.64
2019-02-09T11:53:54.033Z,13.91
2019-02-09T11:54:54.004Z,13.71
2019-02-09T11:55:53.974Z,13.99
2019-02-09T11:56:53.947Z,14.58
2019-02-09T11:57:53.916Z,13.67
2019-02-09T11:58:53.889Z,14.00
2019-02-09T11:59:53.860Z,13.55
2019-02-09T12:00:53.832Z,14.03
2019-02-09T12:01:53.837Z,14.62
2019-02-09T12:02:53.773Z,14.99
2019-02-09T12:03:53.744Z,14.32
2019-02-09T12:04:53.718Z,13.45
2019-02-09T12:05:53.691Z,12.89
2019-02-09T12:06:53.659Z,13.33
2019-02-09T12:07:53.630Z,14.29
2019-02-09T12:08:53.603Z,14.22
2019-02-09T12:09:53.572Z,14.77
2019-02-09T12:10:53.544Z,15.19
2019-02-09T12:11:53.517Z,15.83
2019-02-09T12:12:53.486Z,15.82
2019-02-09T12:13:55.374Z,16.05
2019-02-09T12:14:53.428Z,15.84
2019-02-09T12:15:53.400Z,15.02
2019-02-09T12:16:53.371Z,14.27
2019-02-09T12:17:53.341Z,14.00
2019-02-09T12:18:53.316Z,14.00
2019-02-09T12:19:53.284Z,13.20
2019-02-09T12:20:53.255Z,13.36
2019-02-09T12:21:53.226Z,13.71
2019-02-09T12:22:53.197Z,14.07
2019-02-09T12:23:53.169Z,13.30
2019-02-09T12:24:53.139Z,12.79
2019-02-09T12:25:53.110Z,12.64
2019-02-09T12:26:53.081Z,12.62
2019-02-09T12:27:53.052Z,13.11
2019-02-09T12:28:53.023Z,13.55
2019-02-09T12:29:52.993Z,13.20
2019-02-09T12:30:52.964Z,13.38
2019-02-09T12:31:52.934Z,13.82
2019-02-09T12:32:52.906Z,14.73
2019-02-09T12:33:52.878Z,14.95
2019-02-09T12:34:52.847Z,15.14
2019-02-09T12:35:52.819Z,15.27
2019-02-09T12:36:52.791Z,14.65
2019-02-09T12:37:52.761Z,14.33
2019-02-09T12:38:52.732Z,14.78
2019-02-09T12:39:52.705Z,15.09
2019-02-09T12:40:52.676Z,14.43
2019-02-09T12:41:52.645Z,13.85
2019-02-09T12:42:52.616Z,13.03
2019-02-09T12:43:52.588Z,12.53
2019-02-09T12:44:52.559Z,12.19
2019-02-09T12:45:52.530Z,12.28
2019-02-09T12:46:52.501Z,12.49
2019-02-09T12:47:52.483Z,12.89
2019-02-09T12:48:52.444Z,13.07
2019-02-09T12:49:52.414Z,13.07
2019-02-09T12:50:52.386Z,13.33
2019-02-09T12:51:52.357Z,13.05
2019-02-09T12:52:52.332Z,13.07
2019-02-09T12:53:52.298Z,13.54
2019-02-09T12:54:52.271Z,14.10
2019-02-09T12:55:52.241Z,13.95
2019-02-09T12:56:52.212Z,13.41
2019-02-09T12:57:52.182Z,13.25
2019-02-09T12:58:52.165Z,13.15
2019-02-09T12:59:52.126Z,12.68
2019-02-09T13:00:52.097Z,12.67
2019-02-09T13:01:52.067Z,12.45
2019-02-09T13:02:52.040Z,12.39
2019-02-09T13:03:52.008Z,12.27
2019-02-09T13:04:51.982Z,12.23
2019-02-09T13:05:51.952Z,12.19
2019-02-09T13:06:51.920Z,12.17
2019-02-09T13:07:51.892Z,12.16
2019-02-09T13:08:51.864Z,12.14
2019-02-09T13:09:51.844Z,12.02